Archival Weather

Randolph Afb

Universal City, Texas (KRND)

Report from: Monday, September 26, 2022 12:55 PM CDT
Current time: Saturday, February 4, 2023 10:55 PM CST

Current weather
Weather history
Weather forecast

Temperature32.6°C (90.7°F)
Heat index30.7°C (87.2°F)
Dew point8.1°C (46.6°F)
Winds 10 kts (5.1 m/s, 11.5 mph) Northeast (40°)
Visibility10 mi. (16.1 km)
Clouds Sky clear
Altimeter30.05 in.Hg (1018 mB)
Relative humidity22 %
Density altitude2,019 ft. (615 m)
Sea-level pressure101.7 kPa (1017 mB, 30.02 in.Hg)
Max temp last 6 hours32.6°C (90.7°F)
Min temp last 6 hours21.9°C (71.4°F)
Remarks Fully automated report
Automated weather observing station with precipitation discriminator
Pressure falling more quickly
Flight conditions Visual Meteorological Conditions
Raw dataKRND 261755Z AUTO 04010KT 10SM CLR 33/08 A3005 RMK AO2 SLP167 T03260081 10326 20219 58004
An unhandled exception has occurred. See browser dev tools for details. Reload 🗙